Time;durP1;ratioP1;P1;durP2;ratioP2;P2;SDS_P1;SDS_P2;PMS_P1;PMS_P2;Temp;Humidity;BMP_temperature;BMP_pressure;BME280_temperature;BME280_humidity;BME280_pressure;Samples;Min_cycle;Max_cycle;Signal;HPM_P1;HPM_P2
2024/02/28 00:01:09;;;;;;;36.80;8.18;;;3.40;99.90;;;;;;4980032;28;20026;-91
2024/02/28 00:03:34;;;;;;;23.00;8.57;;;3.40;99.90;;;;;;4980073;28;20015;-91
2024/02/28 00:06:00;;;;;;;31.63;8.85;;;3.40;99.90;;;;;;4980264;28;20038;-91
2024/02/28 00:08:26;;;;;;;44.83;8.35;;;3.40;99.90;;;;;;4979956;28;20061;-90
2024/02/28 00:10:51;;;;;;;52.42;10.15;;;3.40;99.90;;;;;;4979948;28;20037;-90
2024/02/28 00:13:17;;;;;;;43.28;8.50;;;3.40;99.90;;;;;;4979893;28;20483;-91
2024/02/28 00:15:43;;;;;;;22.15;7.10;;;3.40;99.90;;;;;;4979793;28;20484;-90
2024/02/28 00:18:10;;;;;;;46.80;8.48;;;3.50;99.90;;;;;;4980301;28;20261;-91
2024/02/28 00:20:35;;;;;;;43.28;8.82;;;3.50;99.90;;;;;;4980746;28;20026;-91
2024/02/28 00:23:01;;;;;;;49.10;10.02;;;3.50;99.90;;;;;;4980158;28;20030;-90
2024/02/28 00:25:27;;;;;;;53.55;8.90;;;3.50;99.90;;;;;;4981402;28;20503;-91
2024/02/28 00:27:52;;;;;;;43.47;9.85;;;3.60;99.90;;;;;;4982313;28;20018;-90
2024/02/28 00:30:18;;;;;;;31.15;8.68;;;3.60;99.90;;;;;;4983321;28;20037;-91
2024/02/28 00:32:44;;;;;;;45.47;8.02;;;3.60;99.90;;;;;;4981466;28;20061;-91
2024/02/28 00:35:10;;;;;;;53.22;10.82;;;3.60;99.90;;;;;;4979845;28;20049;-91
2024/02/28 00:37:35;;;;;;;47.25;9.23;;;3.60;99.90;;;;;;4980101;28;20038;-92
2024/02/28 00:40:01;;;;;;;61.17;14.05;;;3.80;99.90;;;;;;4980833;28;20109;-91
2024/02/28 00:42:27;;;;;;;63.55;17.13;;;3.80;99.90;;;;;;4980735;28;20504;-92
2024/02/28 00:44:53;;;;;;;55.25;12.77;;;3.80;99.90;;;;;;4980545;28;20026;-90
2024/02/28 00:47:18;;;;;;;49.47;11.93;;;3.80;99.90;;;;;;4980099;28;20464;-90
2024/02/28 00:49:44;;;;;;;35.78;8.90;;;3.80;99.90;;;;;;4980106;28;20030;-91
2024/02/28 00:52:10;;;;;;;64.95;11.85;;;3.90;99.90;;;;;;4979074;28;20041;-91
2024/02/28 00:54:36;;;;;;;41.30;10.43;;;3.90;99.90;;;;;;4982297;28;20019;-93
2024/02/28 00:57:02;;;;;;;39.35;10.65;;;3.90;99.90;;;;;;5000117;28;20036;-91
2024/02/28 00:59:28;;;;;;;39.30;9.75;;;3.90;99.90;;;;;;5006703;28;20018;-91
2024/02/28 01:01:54;;;;;;;44.10;10.85;;;3.90;99.90;;;;;;4994215;28;20026;-91
2024/02/28 01:04:19;;;;;;;38.40;10.05;;;3.90;99.90;;;;;;4991162;28;20022;-92
2024/02/28 01:06:45;;;;;;;37.70;9.68;;;3.80;99.90;;;;;;4994515;28;20037;-91
2024/02/28 01:09:11;;;;;;;45.85;11.77;;;3.80;99.90;;;;;;4997026;28;20077;-91
2024/02/28 01:11:36;;;;;;;31.48;9.20;;;3.80;99.90;;;;;;4998491;28;20395;-91
2024/02/28 01:14:02;;;;;;;37.53;9.25;;;3.80;99.90;;;;;;4999024;28;20054;-91
2024/02/28 01:16:28;;;;;;;31.30;8.98;;;3.80;99.90;;;;;;4994746;28;20018;-92
2024/02/28 01:18:53;;;;;;;42.65;11.52;;;3.80;99.90;;;;;;4993711;28;20027;-91
2024/02/28 01:21:19;;;;;;;31.67;8.60;;;3.80;99.90;;;;;;4988935;28;20022;-91
2024/02/28 01:23:45;;;;;;;37.53;8.55;;;3.80;99.90;;;;;;5006128;28;20049;-91
2024/02/28 01:26:11;;;;;;;29.73;8.48;;;3.80;99.90;;;;;;4990087;28;20029;-90
2024/02/28 01:28:36;;;;;;;34.97;10.02;;;3.80;99.90;;;;;;4988044;28;20022;-90
2024/02/28 01:31:02;;;;;;;29.77;7.85;;;3.80;99.90;;;;;;4989035;28;20030;-90
2024/02/28 01:33:28;;;;;;;41.97;8.75;;;3.80;99.90;;;;;;4984046;28;20034;-90
2024/02/28 01:35:55;;;;;;;20.17;7.70;;;3.80;99.90;;;;;;4981499;28;20383;-90
2024/02/28 01:38:20;;;;;;;38.45;8.98;;;3.80;99.90;;;;;;4981193;28;20023;-90
2024/02/28 01:40:46;;;;;;;35.28;8.48;;;3.80;99.90;;;;;;4981378;28;20495;-90
2024/02/28 01:43:13;;;;;;;37.50;8.73;;;3.70;99.90;;;;;;4980902;28;20022;-90
2024/02/28 01:45:38;;;;;;;31.85;9.43;;;3.80;99.90;;;;;;4980029;28;20038;-90
2024/02/28 01:48:06;;;;;;;28.98;7.35;;;3.70;99.90;;;;;;4980151;28;20069;-91
2024/02/28 01:50:33;;;;;;;43.78;7.20;;;3.70;99.90;;;;;;4979828;28;20029;-91
2024/02/28 01:52:59;;;;;;;33.47;7.75;;;3.70;99.90;;;;;;4979085;28;20404;-91
2024/02/28 01:55:26;;;;;;;28.15;6.25;;;3.70;99.90;;;;;;4979656;28;20022;-91
2024/02/28 01:57:52;;;;;;;27.08;6.68;;;3.70;99.90;;;;;;4979360;28;20026;-90
2024/02/28 02:00:20;;;;;;;30.67;6.93;;;3.60;99.90;;;;;;4979223;28;20042;-91
2024/02/28 02:02:47;;;;;;;21.92;6.82;;;3.60;99.90;;;;;;4979174;28;20022;-91
2024/02/28 02:05:15;;;;;;;35.13;5.82;;;3.60;99.90;;;;;;4978677;28;20018;-91
2024/02/28 02:07:41;;;;;;;42.58;8.73;;;3.60;99.90;;;;;;4979021;28;20023;-90
2024/02/28 02:10:10;;;;;;;27.65;7.35;;;3.60;99.90;;;;;;4979604;28;20030;-90
2024/02/28 02:12:36;;;;;;;37.33;7.32;;;3.60;99.90;;;;;;4978939;28;20125;-90
2024/02/28 02:15:02;;;;;;;57.20;8.02;;;3.60;99.90;;;;;;4978477;28;20069;-89
2024/02/28 02:17:27;;;;;;;39.63;8.88;;;3.60;99.90;;;;;;4977726;28;20068;-90
2024/02/28 02:19:53;;;;;;;32.20;7.43;;;3.60;99.90;;;;;;4978716;28;20109;-90
2024/02/28 02:22:20;;;;;;;30.90;8.35;;;3.60;99.90;;;;;;4978446;28;20380;-91
2024/02/28 02:24:46;;;;;;;29.15;7.43;;;3.60;99.90;;;;;;4979023;28;20064;-89
2024/02/28 02:27:12;;;;;;;28.55;6.82;;;3.60;99.90;;;;;;4978043;28;20056;-92
2024/02/28 02:29:37;;;;;;;33.53;8.50;;;3.60;99.90;;;;;;4977773;28;20030;-93
2024/02/28 02:32:03;;;;;;;29.20;7.75;;;3.60;99.90;;;;;;4977743;28;20169;-90
2024/02/28 02:34:29;;;;;;;40.55;9.40;;;3.70;99.90;;;;;;4991246;28;20034;-89
2024/02/28 02:36:55;;;;;;;38.80;8.35;;;3.70;99.90;;;;;;4977461;28;20460;-90
2024/02/28 02:39:20;;;;;;;47.00;8.43;;;3.70;99.90;;;;;;4977834;28;20026;-89
2024/02/28 02:41:47;;;;;;;27.00;6.55;;;3.60;99.90;;;;;;4977923;28;20161;-90
2024/02/28 02:44:13;;;;;;;37.88;9.68;;;3.60;99.90;;;;;;4978051;28;20062;-90
2024/02/28 02:46:39;;;;;;;40.50;8.20;;;3.60;99.90;;;;;;4977850;28;20566;-90
2024/02/28 02:49:04;;;;;;;41.45;8.93;;;3.60;99.90;;;;;;4996580;28;20026;-90
2024/02/28 02:51:30;;;;;;;19.40;6.47;;;3.60;99.90;;;;;;4980572;28;20379;-89
2024/02/28 02:53:56;;;;;;;33.92;7.35;;;3.60;99.90;;;;;;4980095;28;20042;-90
2024/02/28 02:56:21;;;;;;;44.08;8.70;;;3.60;99.90;;;;;;4980535;28;20015;-90
2024/02/28 02:58:47;;;;;;;27.98;7.22;;;3.50;99.90;;;;;;4970939;28;20023;-91
2024/02/28 03:01:13;;;;;;;33.10;8.55;;;3.50;99.90;;;;;;4979820;28;20022;-92
2024/02/28 03:03:38;;;;;;;30.80;7.35;;;3.50;99.90;;;;;;4979714;28;20018;-91
2024/02/28 03:06:05;;;;;;;35.17;7.90;;;3.50;99.90;;;;;;4970193;28;20026;-92
2024/02/28 03:08:31;;;;;;;37.45;7.78;;;3.50;99.90;;;;;;4976699;28;20022;-91
2024/02/28 03:10:56;;;;;;;25.67;6.88;;;3.40;99.90;;;;;;4979256;28;20030;-92
2024/02/28 03:13:22;;;;;;;35.80;7.53;;;3.40;99.90;;;;;;4978428;28;20121;-90
2024/02/28 03:15:48;;;;;;;23.85;6.88;;;3.30;99.90;;;;;;4981020;28;20494;-89
2024/02/28 03:18:14;;;;;;;34.83;7.97;;;3.30;99.90;;;;;;4979040;28;20043;-91
2024/02/28 03:20:39;;;;;;;23.95;7.20;;;3.30;99.90;;;;;;4976935;28;20086;-92
2024/02/28 03:23:06;;;;;;;27.67;7.45;;;3.30;99.90;;;;;;4975421;28;20445;-90
2024/02/28 03:25:34;;;;;;;27.17;7.18;;;3.20;99.90;;;;;;4976606;28;20033;-90
2024/02/28 03:28:01;;;;;;;24.95;6.47;;;3.20;99.90;;;;;;4976584;28;20026;-90
2024/02/28 03:30:26;;;;;;;24.30;6.95;;;3.20;99.90;;;;;;4978775;28;20049;-91
2024/02/28 03:32:52;;;;;;;35.88;9.30;;;3.20;99.90;;;;;;4977054;28;20034;-91
2024/02/28 03:35:18;;;;;;;31.83;7.55;;;3.20;99.90;;;;;;4975695;28;20490;-92
2024/02/28 03:37:43;;;;;;;33.40;7.65;;;3.20;99.90;;;;;;4971656;28;20057;-90
2024/02/28 03:40:09;;;;;;;40.55;9.65;;;3.20;99.90;;;;;;4977405;28;20079;-90
2024/02/28 03:42:35;;;;;;;33.55;8.95;;;3.20;99.90;;;;;;4975868;28;20117;-89
2024/02/28 03:45:00;;;;;;;34.15;8.43;;;3.10;99.90;;;;;;4972892;28;20476;-89
2024/02/28 03:47:26;;;;;;;31.30;7.50;;;3.10;99.90;;;;;;4974727;28;20038;-89
2024/02/28 03:49:52;;;;;;;33.97;8.43;;;3.10;99.90;;;;;;4974455;28;20030;-89
2024/02/28 03:52:18;;;;;;;27.77;7.53;;;3.10;99.90;;;;;;4974236;28;20078;-89
2024/02/28 03:54:44;;;;;;;27.58;8.27;;;3.10;99.90;;;;;;4977129;28;20484;-89
2024/02/28 03:57:10;;;;;;;25.85;7.50;;;3.10;99.90;;;;;;4973795;28;20027;-92
2024/02/28 03:59:36;;;;;;;37.22;9.38;;;3.10;99.90;;;;;;4976039;28;20391;-91
2024/02/28 04:02:02;;;;;;;29.20;7.43;;;3.10;99.90;;;;;;4973684;28;20428;-91
2024/02/28 04:04:27;;;;;;;41.10;8.25;;;3.20;99.90;;;;;;4973256;28;20026;-90
2024/02/28 04:06:53;;;;;;;29.92;7.53;;;3.20;99.90;;;;;;4975302;28;20053;-91
2024/02/28 04:09:20;;;;;;;28.33;7.90;;;3.20;99.90;;;;;;4974322;28;20046;-91
2024/02/28 04:11:46;;;;;;;34.17;8.95;;;3.20;99.90;;;;;;4974946;28;20033;-91
2024/02/28 04:14:11;;;;;;;22.63;6.97;;;3.20;99.90;;;;;;4975426;28;20026;-91
2024/02/28 04:16:44;;;;;;;29.83;7.10;;;3.10;99.90;;;;;;4975254;28;20033;-93
2024/02/28 04:19:10;;;;;;;24.75;6.60;;;3.10;99.90;;;;;;4991490;28;20030;-92
2024/02/28 04:21:36;;;;;;;38.05;7.28;;;3.10;99.90;;;;;;4975918;28;20026;-90
2024/02/28 04:24:03;;;;;;;24.63;7.05;;;3.00;99.90;;;;;;4973336;28;20030;-91
2024/02/28 04:26:29;;;;;;;33.63;8.57;;;3.00;99.90;;;;;;4976285;28;20424;-90
2024/02/28 04:28:56;;;;;;;18.77;6.82;;;3.00;99.90;;;;;;4975836;28;20394;-90
2024/02/28 04:31:22;;;;;;;30.98;8.15;;;2.90;99.90;;;;;;4976219;28;20392;-92
2024/02/28 04:33:47;;;;;;;31.48;7.13;;;3.00;99.90;;;;;;4975962;28;20027;-90
2024/02/28 04:36:14;;;;;;;34.08;7.30;;;3.00;99.90;;;;;;4976548;28;20077;-90
2024/02/28 04:38:40;;;;;;;25.25;7.43;;;2.90;99.90;;;;;;4977775;28;20030;-90
2024/02/28 04:41:06;;;;;;;31.25;7.63;;;3.00;99.90;;;;;;4980299;28;20025;-90
2024/02/28 04:43:31;;;;;;;29.13;6.05;;;3.00;99.90;;;;;;4979914;28;20483;-90
2024/02/28 04:45:57;;;;;;;31.35;8.43;;;3.10;99.90;;;;;;4979218;28;20133;-90
2024/02/28 04:48:23;;;;;;;31.67;5.43;;;3.10;99.90;;;;;;4980059;28;20392;-89
2024/02/28 04:50:51;;;;;;;35.17;6.47;;;3.10;99.90;;;;;;4980385;28;20491;-90
2024/02/28 04:53:17;;;;;;;52.53;10.23;;;3.10;99.90;;;;;;4980509;28;20071;-90
2024/02/28 04:55:43;;;;;;;40.60;11.15;;;3.10;99.90;;;;;;4983064;28;20030;-90
2024/02/28 04:58:08;;;;;;;49.10;10.43;;;3.00;99.90;;;;;;4994422;28;20033;-90
2024/02/28 05:00:34;;;;;;;30.80;6.35;;;3.00;99.90;;;;;;4985601;28;20118;-90
2024/02/28 05:03:00;;;;;;;44.92;10.38;;;3.00;99.90;;;;;;4983187;28;20064;-92
2024/02/28 05:05:26;;;;;;;41.47;9.55;;;3.00;99.90;;;;;;4980886;28;20018;-90
2024/02/28 05:07:51;;;;;;;41.38;9.05;;;3.00;99.90;;;;;;4980603;28;20392;-91
2024/02/28 05:10:17;;;;;;;25.40;7.03;;;3.00;99.90;;;;;;4986439;28;20053;-90
2024/02/28 05:12:43;;;;;;;38.20;9.10;;;3.00;99.90;;;;;;4983556;28;20027;-91
2024/02/28 05:15:09;;;;;;;35.67;6.70;;;3.00;99.90;;;;;;4983973;28;20023;-91
2024/02/28 05:17:34;;;;;;;32.75;5.65;;;3.00;99.90;;;;;;5004332;28;20456;-90
2024/02/28 05:20:00;;;;;;;45.72;8.85;;;3.10;99.90;;;;;;4986679;28;20058;-90
2024/02/28 05:22:26;;;;;;;27.42;7.22;;;3.10;99.90;;;;;;4986302;28;20026;-91
2024/02/28 05:24:52;;;;;;;38.28;6.53;;;3.00;99.90;;;;;;4982000;28;20038;-91
2024/02/28 05:27:17;;;;;;;26.25;5.75;;;3.00;99.90;;;;;;4980773;28;20471;-92
2024/02/28 05:29:43;;;;;;;22.40;6.30;;;3.10;99.90;;;;;;4981310;28;20050;-92
2024/02/28 05:32:09;;;;;;;39.70;6.47;;;3.00;99.90;;;;;;4981154;28;20085;-90
2024/02/28 05:34:35;;;;;;;33.42;6.75;;;3.00;99.90;;;;;;4979979;28;20321;-90
2024/02/28 05:37:01;;;;;;;28.88;7.20;;;3.00;99.90;;;;;;4979783;28;20034;-90
2024/02/28 05:39:30;;;;;;;27.40;7.00;;;3.00;99.90;;;;;;4980967;28;20022;-90
2024/02/28 05:41:57;;;;;;;35.63;5.97;;;3.00;99.90;;;;;;4983274;28;20038;-89
2024/02/28 05:44:24;;;;;;;42.97;5.85;;;3.00;99.90;;;;;;4985426;28;20280;-90
2024/02/28 05:46:50;;;;;;;25.38;6.28;;;3.00;99.90;;;;;;4983252;28;20062;-92
2024/02/28 05:49:16;;;;;;;31.85;6.75;;;3.10;99.90;;;;;;4981155;28;20221;-90
2024/02/28 05:51:41;;;;;;;29.85;5.50;;;3.10;99.90;;;;;;4978944;28;20070;-90
2024/02/28 05:54:07;;;;;;;46.28;8.07;;;3.10;99.90;;;;;;4979218;28;20038;-89
2024/02/28 05:56:32;;;;;;;28.27;6.32;;;3.10;99.90;;;;;;4979108;28;20110;-90
2024/02/28 05:58:58;;;;;;;24.15;5.93;;;3.20;99.90;;;;;;4979159;28;20038;-90
2024/02/28 06:01:24;;;;;;;33.95;5.50;;;3.20;99.90;;;;;;4979029;28;20027;-90
2024/02/28 06:03:50;;;;;;;19.27;5.00;;;3.20;99.90;;;;;;4979375;28;20117;-89
2024/02/28 06:06:16;;;;;;;24.30;4.93;;;3.20;99.90;;;;;;4979293;28;20035;-89
2024/02/28 06:08:43;;;;;;;26.20;5.70;;;3.20;99.90;;;;;;4978483;28;20080;-90
2024/02/28 06:11:09;;;;;;;25.25;4.65;;;3.30;99.90;;;;;;4978632;28;20113;-91
2024/02/28 06:13:36;;;;;;;24.80;4.38;;;3.20;99.90;;;;;;4978489;28;20053;-90
2024/02/28 06:16:03;;;;;;;22.08;5.30;;;3.30;99.90;;;;;;4978526;28;20023;-89
2024/02/28 06:18:33;;;;;;;30.13;6.00;;;3.20;99.90;;;;;;4978892;28;20098;-89
2024/02/28 06:21:01;;;;;;;30.35;4.82;;;3.30;99.90;;;;;;4972646;28;20026;-90
2024/02/28 06:23:28;;;;;;;36.42;4.95;;;3.30;99.90;;;;;;4974933;28;20035;-91
2024/02/28 06:25:53;;;;;;;30.85;5.55;;;3.30;99.90;;;;;;4975847;28;20033;-89
2024/02/28 06:28:19;;;;;;;23.20;4.90;;;3.30;99.90;;;;;;4976206;28;20121;-89
2024/02/28 06:30:48;;;;;;;27.02;4.55;;;3.30;99.90;;;;;;4975697;28;20118;-92
2024/02/28 06:33:14;;;;;;;37.22;5.82;;;3.40;99.90;;;;;;4975241;28;20249;-90
2024/02/28 06:35:40;;;;;;;28.88;4.63;;;3.40;99.90;;;;;;4975325;28;20030;-90
2024/02/28 06:38:07;;;;;;;23.30;4.60;;;3.40;99.90;;;;;;4977594;28;20518;-91
2024/02/28 06:40:33;;;;;;;29.75;4.35;;;3.40;99.90;;;;;;4978553;28;20046;-90
2024/02/28 06:42:58;;;;;;;26.20;5.25;;;3.40;99.90;;;;;;4975034;28;20498;-91
2024/02/28 06:45:24;;;;;;;27.10;4.80;;;3.40;99.90;;;;;;4974094;28;20074;-92
2024/02/28 06:47:50;;;;;;;21.65;4.70;;;3.50;99.90;;;;;;4974990;28;20031;-91
2024/02/28 06:50:16;;;;;;;22.38;4.35;;;3.40;99.90;;;;;;4975395;28;20038;-91
2024/02/28 06:52:43;;;;;;;26.58;7.07;;;3.40;99.90;;;;;;4974696;28;20039;-90
2024/02/28 06:55:13;;;;;;;32.58;6.03;;;3.40;99.90;;;;;;4976797;28;20115;-91
2024/02/28 06:57:41;;;;;;;25.67;4.57;;;3.40;99.90;;;;;;4977357;28;20026;-91
2024/02/28 07:00:09;;;;;;;23.50;4.80;;;3.40;99.90;;;;;;4976815;28;20046;-90
2024/02/28 07:02:35;;;;;;;22.48;4.30;;;3.40;99.90;;;;;;4976918;28;20034;-91
2024/02/28 07:05:04;;;;;;;26.38;4.40;;;3.40;99.90;;;;;;4977449;28;20026;-91
2024/02/28 07:07:30;;;;;;;11.82;4.07;;;3.40;99.90;;;;;;4976337;28;20022;-91
2024/02/28 07:09:56;;;;;;;16.10;3.83;;;3.40;99.90;;;;;;4974049;28;20276;-91
2024/02/28 07:12:22;;;;;;;30.73;4.63;;;3.40;99.90;;;;;;4974329;28;20103;-90
2024/02/28 07:14:48;;;;;;;20.15;4.18;;;3.40;99.90;;;;;;4976193;28;20458;-90
2024/02/28 07:17:13;;;;;;;33.25;5.40;;;3.40;99.90;;;;;;4975639;28;20093;-91
2024/02/28 07:19:39;;;;;;;23.60;4.63;;;3.40;99.90;;;;;;4980311;28;20037;-91
2024/02/28 07:22:05;;;;;;;20.58;4.55;;;3.50;99.90;;;;;;4982150;28;20041;-91
2024/02/28 07:24:31;;;;;;;15.43;4.15;;;3.50;99.90;;;;;;4979698;28;20026;-91
2024/02/28 07:26:57;;;;;;;31.02;4.95;;;3.50;99.90;;;;;;4978709;28;20031;-90
2024/02/28 07:29:23;;;;;;;29.10;4.57;;;3.50;99.90;;;;;;4979925;28;20094;-90
2024/02/28 07:31:52;;;;;;;22.10;4.35;;;3.50;99.90;;;;;;4978389;28;20070;-91
2024/02/28 07:34:18;;;;;;;20.63;3.90;;;3.50;99.90;;;;;;4977136;28;20555;-91
2024/02/28 07:36:43;;;;;;;20.15;4.55;;;3.50;99.90;;;;;;4979338;28;20042;-91
2024/02/28 07:39:12;;;;;;;25.75;4.38;;;3.50;99.90;;;;;;4977665;28;20030;-91
2024/02/28 07:41:39;;;;;;;28.30;4.63;;;3.60;99.90;;;;;;4974779;28;20042;-91
2024/02/28 07:44:05;;;;;;;18.88;4.55;;;3.60;99.90;;;;;;4977457;28;20027;-91
2024/02/28 07:46:30;;;;;;;26.67;4.38;;;3.60;99.90;;;;;;4976611;28;20046;-92
2024/02/28 07:48:57;;;;;;;23.55;4.70;;;3.60;99.90;;;;;;4976494;28;20041;-91
2024/02/28 07:51:22;;;;;;;15.15;3.72;;;3.60;99.90;;;;;;4976842;28;20029;-91
2024/02/28 07:53:48;;;;;;;29.25;4.20;;;3.70;99.90;;;;;;4976727;28;20030;-90
2024/02/28 07:56:18;;;;;;;20.67;4.13;;;3.70;99.90;;;;;;4976545;28;20030;-91
2024/02/28 07:58:44;;;;;;;28.70;5.45;;;3.70;99.90;;;;;;4976536;28;20085;-91
2024/02/28 08:01:10;;;;;;;13.32;3.45;;;3.80;99.90;;;;;;4977050;28;20018;-91
2024/02/28 08:03:36;;;;;;;13.57;3.25;;;3.80;99.90;;;;;;4977229;28;20116;-92
2024/02/28 08:06:02;;;;;;;22.95;3.63;;;3.80;99.90;;;;;;4997472;28;20403;-91
2024/02/28 08:08:28;;;;;;;17.10;2.95;;;3.80;99.90;;;;;;4978560;28;20106;-91
2024/02/28 08:10:54;;;;;;;18.55;3.67;;;3.80;99.90;;;;;;4976873;28;20022;-92
2024/02/28 08:13:20;;;;;;;26.85;5.10;;;3.80;99.90;;;;;;4979556;28;20097;-92
2024/02/28 08:15:46;;;;;;;33.13;5.15;;;3.90;99.90;;;;;;4978444;28;20035;-91
2024/02/28 08:18:12;;;;;;;35.60;4.90;;;3.90;99.90;;;;;;4983668;28;20045;-92
2024/02/28 08:20:38;;;;;;;25.85;6.38;;;3.90;99.90;;;;;;4980314;28;20019;-90
2024/02/28 08:23:05;;;;;;;12.63;3.45;;;4.00;99.90;;;;;;4983720;28;20501;-92
2024/02/28 08:25:31;;;;;;;24.67;4.43;;;4.00;99.90;;;;;;4985243;28;20033;-92
2024/02/28 08:27:57;;;;;;;26.38;4.88;;;4.00;99.90;;;;;;4982302;28;20035;-91
2024/02/28 08:30:22;;;;;;;20.55;3.83;;;4.00;99.90;;;;;;4987024;28;20118;-90
2024/02/28 08:32:49;;;;;;;25.23;4.00;;;4.10;99.90;;;;;;4981155;28;20026;-90
2024/02/28 08:35:16;;;;;;;27.05;4.03;;;4.10;99.90;;;;;;4982557;28;20224;-92
2024/02/28 08:37:42;;;;;;;21.88;3.90;;;4.20;99.90;;;;;;4981361;28;20126;-90
2024/02/28 08:40:08;;;;;;;21.63;4.68;;;4.20;99.90;;;;;;4980378;28;20054;-90
2024/02/28 08:42:34;;;;;;;16.83;3.08;;;4.30;99.90;;;;;;4983523;28;20129;-90
2024/02/28 08:45:00;;;;;;;19.58;3.50;;;4.30;99.90;;;;;;4988977;28;20030;-90
2024/02/28 08:47:26;;;;;;;28.08;3.95;;;4.40;99.90;;;;;;4995149;28;20138;-90
2024/02/28 08:49:53;;;;;;;25.55;3.60;;;4.40;99.90;;;;;;4994684;28;20034;-91
2024/02/28 08:52:20;;;;;;;27.38;3.38;;;4.50;99.90;;;;;;4977246;28;20044;-91
2024/02/28 08:54:47;;;;;;;27.65;3.67;;;4.60;99.90;;;;;;4983433;28;20023;-91
2024/02/28 08:57:13;;;;;;;32.10;4.65;;;4.60;99.90;;;;;;4986125;28;20038;-91
2024/02/28 08:59:39;;;;;;;24.40;3.60;;;4.70;99.90;;;;;;4982174;28;20014;-90
2024/02/28 09:02:06;;;;;;;27.33;3.90;;;4.80;99.90;;;;;;4979224;28;20038;-92
2024/02/28 09:04:32;;;;;;;22.40;5.18;;;4.80;99.90;;;;;;4989811;28;20427;-91
2024/02/28 09:06:57;;;;;;;26.15;3.90;;;4.80;99.90;;;;;;4986972;28;20077;-91
2024/02/28 09:09:23;;;;;;;30.05;4.57;;;4.90;99.90;;;;;;4984838;28;20023;-92
2024/02/28 09:11:49;;;;;;;18.33;3.70;;;4.90;99.90;;;;;;4985091;28;20026;-93
2024/02/28 09:14:14;;;;;;;28.65;3.55;;;5.00;99.90;;;;;;4989170;28;20034;-91
2024/02/28 09:16:40;;;;;;;29.95;3.45;;;5.00;99.90;;;;;;4987675;28;20026;-91
2024/02/28 09:19:06;;;;;;;23.85;3.60;;;5.00;99.90;;;;;;4986067;28;20031;-91
2024/02/28 09:21:32;;;;;;;27.92;3.60;;;5.10;99.90;;;;;;4986211;28;20369;-91
2024/02/28 09:23:57;;;;;;;31.17;3.65;;;5.10;99.90;;;;;;4982152;28;20026;-91
2024/02/28 09:26:23;;;;;;;26.17;3.55;;;5.20;99.90;;;;;;4985741;28;20029;-91
2024/02/28 09:28:49;;;;;;;25.60;3.80;;;5.20;99.90;;;;;;4984634;28;20034;-91
2024/02/28 09:31:17;;;;;;;28.15;5.18;;;5.20;99.90;;;;;;4984269;28;20516;-91
2024/02/28 09:33:46;;;;;;;38.60;6.53;;;5.20;99.90;;;;;;4984560;28;20072;-90
2024/02/28 09:36:12;;;;;;;22.50;3.35;;;5.20;99.90;;;;;;4981643;28;20198;-91
2024/02/28 09:38:38;;;;;;;22.23;4.97;;;5.30;99.90;;;;;;4983353;28;20037;-92
2024/02/28 09:41:04;;;;;;;23.52;3.60;;;5.30;99.90;;;;;;4984578;28;20034;-92
2024/02/28 09:43:31;;;;;;;17.58;3.35;;;5.30;99.90;;;;;;4982565;28;20027;-92
2024/02/28 09:46:04;;;;;;;22.40;3.65;;;5.30;99.90;;;;;;4985841;28;20050;-91
2024/02/28 09:48:31;;;;;;;26.55;3.53;;;5.40;99.90;;;;;;4986026;28;20057;-91
2024/02/28 09:51:06;;;;;;;22.23;4.60;;;5.40;99.90;;;;;;4984148;28;20148;-91
2024/02/28 09:53:32;;;;;;;31.70;4.43;;;5.40;99.90;;;;;;5000867;28;20034;-92
2024/02/28 09:55:59;;;;;;;22.65;3.58;;;5.40;99.90;;;;;;4983821;28;20033;-93
2024/02/28 09:58:26;;;;;;;26.10;4.43;;;5.40;99.90;;;;;;4984927;28;20018;-92
2024/02/28 10:00:54;;;;;;;25.83;3.63;;;5.40;99.90;;;;;;4982669;28;20026;-92
2024/02/28 10:03:22;;;;;;;28.52;3.95;;;5.50;99.90;;;;;;4988921;28;20488;-92
2024/02/28 10:05:48;;;;;;;18.15;3.38;;;5.50;99.90;;;;;;4994198;28;20053;-92
2024/02/28 10:08:15;;;;;;;28.08;5.18;;;5.50;99.90;;;;;;4992372;28;20102;-92
2024/02/28 10:10:48;;;;;;;16.30;3.78;;;5.60;99.90;;;;;;4989970;28;20086;-91
2024/02/28 10:13:17;;;;;;;23.30;3.05;;;5.60;99.90;;;;;;4992219;28;20057;-91
2024/02/28 10:15:43;;;;;;;27.15;3.75;;;5.60;99.90;;;;;;4980435;28;20018;-90
2024/02/28 10:18:09;;;;;;;24.98;3.83;;;5.70;99.90;;;;;;4978160;28;20038;-89
2024/02/28 10:20:34;;;;;;;30.90;4.03;;;5.70;99.90;;;;;;4978223;28;20034;-92
2024/02/28 10:23:05;;;;;;;28.65;5.07;;;5.70;99.90;;;;;;4977522;28;20037;-92
2024/02/28 10:25:31;;;;;;;;;;;5.70;99.90;;;;;;4977682;28;20019;-91
2024/02/28 10:28:03;;;;;;;39.22;4.35;;;5.80;99.90;;;;;;4974084;28;19905;-89
2024/02/28 10:30:28;;;;;;;21.20;3.78;;;5.90;99.90;;;;;;4977015;28;20030;-91
2024/02/28 10:32:56;;;;;;;29.73;4.22;;;5.90;99.90;;;;;;4976726;28;20038;-92
2024/02/28 10:35:25;;;;;;;22.17;3.78;;;6.00;99.90;;;;;;4979090;28;20022;-90
2024/02/28 10:37:53;;;;;;;26.92;4.03;;;6.10;99.90;;;;;;4977393;28;20026;-92
2024/02/28 10:40:21;;;;;;;17.85;3.55;;;6.30;99.90;;;;;;4976914;28;20027;-91
2024/02/28 10:42:48;;;;;;;28.90;5.75;;;6.40;99.90;;;;;;4977488;28;20022;-91
2024/02/28 10:45:17;;;;;;;22.48;4.22;;;6.40;99.90;;;;;;4977744;28;20046;-92
2024/02/28 10:47:43;;;;;;;24.67;3.72;;;6.50;99.90;;;;;;4978406;28;20428;-92
2024/02/28 10:50:09;;;;;;;21.02;4.53;;;6.60;99.90;;;;;;4979252;28;20034;-92
2024/02/28 10:52:42;;;;;;;24.20;3.58;;;6.60;99.90;;;;;;4981308;28;20062;-92
2024/02/28 10:55:11;;;;;;;28.27;5.05;;;6.60;99.90;;;;;;4983187;28;20022;-91
2024/02/28 10:57:38;;;;;;;25.92;5.03;;;6.70;99.90;;;;;;4983704;28;20065;-92
2024/02/28 11:00:05;;;;;;;20.58;3.90;;;6.70;99.90;;;;;;4984958;28;20032;-91
2024/02/28 11:02:35;;;;;;;30.30;4.50;;;6.70;99.90;;;;;;4985371;28;20097;-90
2024/02/28 11:05:28;;;;;;;29.95;4.28;;;6.70;99.90;;;;;;5002531;28;20029;-94
2024/02/28 11:08:10;;;;;;;24.58;5.15;;;6.80;99.90;;;;;;4971257;28;20039;-91
2024/02/28 11:10:43;;;;;;;26.88;4.78;;;6.80;99.90;;;;;;4983307;28;20034;-89
2024/02/28 11:13:31;;;;;;;29.50;4.20;;;6.80;99.90;;;;;;4983711;28;20026;-90
2024/02/28 11:16:57;;;;;;;25.88;3.97;;;6.70;99.90;;;;;;5005842;28;20045;-91
2024/02/28 11:23:01;;;;;;;35.20;6.80;;;6.70;99.90;;;;;;5009292;28;20034;-90
2024/02/28 11:25:28;;;;;;;20.95;4.22;;;6.70;99.90;;;;;;4984267;28;20054;-89
2024/02/28 11:28:47;;;;;;;34.35;5.15;;;6.70;99.90;;;;;;4978667;28;20054;-90
2024/02/28 11:31:34;;;;;;;27.38;5.03;;;6.80;99.90;;;;;;4984785;28;20566;-91
2024/02/28 11:34:10;;;;;;;31.33;5.38;;;6.80;99.90;;;;;;4978126;28;20030;-91
2024/02/28 11:37:08;;;;;;;31.63;4.10;;;6.80;99.90;;;;;;4962017;28;20038;-90
2024/02/28 11:43:56;;;;;;;31.15;5.00;;;7.10;99.90;;;;;;4980503;28;20033;-91
2024/02/28 11:47:00;;;;;;;30.73;5.18;;;7.50;99.90;;;;;;4986820;28;20050;-92
2024/02/28 11:50:01;;;;;;;27.48;3.80;;;7.90;99.90;;;;;;4981234;28;20046;-91
2024/02/28 11:56:07;;;;;;;29.23;4.88;;;8.90;99.90;;;;;;4983713;28;20045;-95
2024/02/28 11:58:33;;;;;;;25.60;4.10;;;9.20;99.90;;;;;;4976912;28;20085;-94
2024/02/28 12:00:59;;;;;;;20.17;4.10;;;9.40;99.90;;;;;;4977336;28;20035;-94
2024/02/28 12:03:26;;;;;;;20.58;3.97;;;9.50;99.90;;;;;;4977292;28;20519;-93
2024/02/28 12:05:52;;;;;;;19.35;3.50;;;9.70;99.90;;;;;;4978153;28;20481;-96
2024/02/28 12:08:19;;;;;;;20.58;3.58;;;9.80;99.90;;;;;;4977813;28;20468;-94
2024/02/28 12:10:46;;;;;;;12.93;2.60;;;9.80;99.90;;;;;;4961092;28;20029;-93
2024/02/28 12:13:17;;;;;;;18.75;3.70;;;9.90;99.90;;;;;;4979772;28;20031;-96
2024/02/28 12:15:43;;;;;;;21.52;3.95;;;9.90;99.90;;;;;;4979894;28;20452;-91
2024/02/28 12:21:31;;;;;;;17.73;3.15;;;9.70;99.90;;;;;;5019262;23;20120;-79
2024/02/28 12:23:57;;;;;;;26.17;4.13;;;9.60;99.90;;;;;;4998643;28;20046;-79
2024/02/28 12:26:23;;;;;;;15.45;2.85;;;9.70;99.90;;;;;;4998124;28;20056;-80
2024/02/28 12:28:49;;;;;;;19.42;3.35;;;9.60;99.90;;;;;;5015735;28;20088;-79
2024/02/28 12:31:15;;;;;;;15.27;2.63;;;9.70;99.90;;;;;;4996885;28;20137;-79
2024/02/28 12:33:42;;;;;;;20.13;3.30;;;9.70;99.90;;;;;;5014676;28;20042;-78
2024/02/28 12:36:08;;;;;;;15.23;2.88;;;9.70;99.90;;;;;;4998180;28;20396;-81
2024/02/28 12:38:34;;;;;;;19.92;3.10;;;9.70;99.90;;;;;;5015701;28;20026;-80
2024/02/28 12:40:59;;;;;;;21.98;3.10;;;9.60;99.90;;;;;;4997022;28;20370;-79
2024/02/28 12:43:25;;;;;;;18.10;3.13;;;9.60;99.90;;;;;;4997820;28;20030;-80
2024/02/28 12:45:51;;;;;;;11.77;2.10;;;9.70;99.90;;;;;;5015476;28;20034;-81
2024/02/28 12:48:16;;;;;;;13.80;3.35;;;9.70;99.90;;;;;;5015128;28;20037;-79
2024/02/28 12:50:42;;;;;;;21.38;2.97;;;9.70;99.90;;;;;;5015591;28;20117;-85
2024/02/28 12:53:08;;;;;;;22.23;2.72;;;9.70;99.90;;;;;;5007033;28;20224;-82
2024/02/28 12:55:34;;;;;;;13.20;2.42;;;9.80;99.90;;;;;;5015414;28;20072;-81
2024/02/28 12:58:00;;;;;;;15.93;2.17;;;9.90;99.90;;;;;;4996298;28;20539;-80
2024/02/28 13:00:26;;;;;;;14.13;3.17;;;10.00;99.90;;;;;;5013560;28;20108;-83